Time;durP1;ratioP1;P1;durP2;ratioP2;P2;SDS_P1;SDS_P2;PMS_P1;PMS_P2;Temp;Humidity;BMP_temperature;BMP_pressure;BME280_temperature;BME280_humidity;BME280_pressure;Samples;Min_cycle;Max_cycle;Signal;HPM_P1;HPM_P2
2021/05/20 00:01:08;;;;;;;468.63;287.08;;;;;;;;;;5066733;28;20055;-75
2021/05/20 00:03:34;;;;;;;471.55;288.77;;;;;;;;;;5036956;28;20029;-77
2021/05/20 00:06:00;;;;;;;472.95;288.08;;;;;;;;;;5057121;28;20074;-77
2021/05/20 00:08:27;;;;;;;472.05;287.65;;;;;;;;;;5053219;28;20399;-76
2021/05/20 00:10:53;;;;;;;475.23;293.85;;;;;;;;;;5058194;28;20101;-76
2021/05/20 00:13:19;;;;;;;478.20;287.52;;;;;;;;;;5052683;28;20029;-76
2021/05/20 00:15:44;;;;;;;477.42;295.88;;;;;;;;;;5039592;28;20458;-75
2021/05/20 00:18:10;;;;;;;474.85;294.63;;;;;;;;;;5064102;28;20025;-78
2021/05/20 00:20:36;;;;;;;469.27;283.67;;;;;;;;;;5070275;28;20036;-76
2021/05/20 00:23:02;;;;;;;474.70;292.17;;;;;;;;;;5063567;28;20029;-75
2021/05/20 00:25:28;;;;;;;467.80;286.23;;;;;;;;;;5034675;28;20071;-76
2021/05/20 00:27:54;;;;;;;462.92;285.33;;;;;;;;;;5035010;28;20024;-76
2021/05/20 00:30:20;;;;;;;463.45;280.08;;;;;;;;;;5062697;28;20123;-75
2021/05/20 00:32:46;;;;;;;466.13;284.55;;;;;;;;;;5076044;28;20283;-75
2021/05/20 00:35:12;;;;;;;463.00;280.45;;;;;;;;;;5077606;28;20056;-77
2021/05/20 00:37:38;;;;;;;467.10;285.58;;;;;;;;;;5085016;28;20028;-76
2021/05/20 00:40:05;;;;;;;465.67;278.98;;;;;;;;;;5064063;28;20382;-77
2021/05/20 00:42:31;;;;;;;477.40;302.98;;;;;;;;;;5073040;28;20414;-76
2021/05/20 00:44:58;;;;;;;473.90;287.17;;;;;;;;;;5078535;28;20115;-75
2021/05/20 00:47:26;;;;;;;472.35;287.73;;;;;;;;;;5068468;28;20440;-77
2021/05/20 00:49:52;;;;;;;467.85;287.65;;;;;;;;;;5070101;28;20450;-76
2021/05/20 00:52:18;;;;;;;469.88;287.60;;;;;;;;;;5072094;28;20021;-75
2021/05/20 00:54:45;;;;;;;471.52;295.13;;;;;;;;;;5061310;28;20366;-75
2021/05/20 00:57:12;;;;;;;468.40;287.17;;;;;;;;;;5064195;28;20505;-75
2021/05/20 00:59:38;;;;;;;468.30;282.88;;;;;;;;;;5053967;28;20036;-75
2021/05/20 01:02:04;;;;;;;466.48;283.45;;;;;;;;;;5086489;28;20858;-75
2021/05/20 01:04:30;;;;;;;461.58;281.02;;;;;;;;;;5075581;28;20027;-77
2021/05/20 01:06:56;;;;;;;469.10;280.05;;;;;;;;;;5073932;28;20020;-76
2021/05/20 01:09:22;;;;;;;464.70;274.83;;;;;;;;;;5071726;28;20024;-76
2021/05/20 01:11:48;;;;;;;469.65;284.02;;;;;;;;;;5087274;28;20043;-75
2021/05/20 01:14:14;;;;;;;464.20;276.13;;;;;;;;;;5059073;28;20036;-76
2021/05/20 01:16:40;;;;;;;466.80;276.95;;;;;;;;;;5078941;28;20430;-76
2021/05/20 01:19:06;;;;;;;463.98;279.25;;;;;;;;;;5072017;28;20066;-78
2021/05/20 01:21:33;;;;;;;468.13;283.00;;;;;;;;;;5089928;28;20051;-76
2021/05/20 01:23:59;;;;;;;472.15;285.10;;;;;;;;;;5054568;28;20042;-75
2021/05/20 01:26:26;;;;;;;470.40;281.80;;;;;;;;;;5079107;28;20020;-77
2021/05/20 01:28:52;;;;;;;472.10;279.75;;;;;;;;;;5081997;28;20076;-75
2021/05/20 01:31:18;;;;;;;471.27;285.60;;;;;;;;;;5079157;28;20523;-78
2021/05/20 01:33:45;;;;;;;454.42;268.15;;;;;;;;;;5074912;28;20036;-75
2021/05/20 01:36:12;;;;;;;461.92;284.02;;;;;;;;;;5053574;28;20031;-78
2021/05/20 01:41:06;;;;;;;458.65;274.55;;;;;;;;;;5082316;28;20043;-76
2021/05/20 01:43:33;;;;;;;463.08;284.83;;;;;;;;;;5072869;28;20044;-76
2021/05/20 01:46:04;;;;;;;462.23;276.52;;;;;;;;;;5066663;28;20377;-77
2021/05/20 01:48:31;;;;;;;459.55;271.38;;;;;;;;;;5085173;28;20112;-76
2021/05/20 01:51:02;;;;;;;460.90;274.80;;;;;;;;;;5063821;28;20127;-75
2021/05/20 01:53:28;;;;;;;457.63;268.42;;;;;;;;;;5071031;28;20422;-78
2021/05/20 01:55:54;;;;;;;470.45;287.40;;;;;;;;;;5074278;28;20051;-76
2021/05/20 01:58:21;;;;;;;474.08;284.27;;;;;;;;;;5087299;28;20082;-76
2021/05/20 02:00:47;;;;;;;469.55;283.20;;;;;;;;;;5070585;28;20520;-76
2021/05/20 02:03:13;;;;;;;467.98;283.33;;;;;;;;;;5070759;28;20029;-76
2021/05/20 02:05:39;;;;;;;467.55;279.13;;;;;;;;;;5079574;28;20085;-75
2021/05/20 02:08:05;;;;;;;466.65;282.70;;;;;;;;;;5060768;28;20028;-76
2021/05/20 02:10:31;;;;;;;464.27;280.65;;;;;;;;;;5089793;28;20063;-77
2021/05/20 02:12:57;;;;;;;467.48;280.88;;;;;;;;;;5080842;28;20024;-76
2021/05/20 02:15:23;;;;;;;472.55;289.30;;;;;;;;;;5053040;28;20032;-74
2021/05/20 02:17:50;;;;;;;467.58;286.27;;;;;;;;;;5072297;28;20016;-77
2021/05/20 02:20:16;;;;;;;464.45;277.88;;;;;;;;;;5073046;28;20074;-75
2021/05/20 02:22:42;;;;;;;468.13;286.35;;;;;;;;;;5057190;28;20400;-75
2021/05/20 02:25:09;;;;;;;472.73;291.75;;;;;;;;;;5054005;28;20610;-75
2021/05/20 02:27:35;;;;;;;467.52;283.98;;;;;;;;;;5054345;28;20137;-74
2021/05/20 02:30:01;;;;;;;471.67;292.65;;;;;;;;;;5055667;28;20737;-77
2021/05/20 02:32:27;;;;;;;466.80;287.58;;;;;;;;;;5073895;28;20342;-76
2021/05/20 02:34:53;;;;;;;467.83;291.33;;;;;;;;;;5069836;28;20027;-75
2021/05/20 02:37:19;;;;;;;472.70;298.27;;;;;;;;;;5069734;28;20025;-76
2021/05/20 02:39:45;;;;;;;470.13;293.10;;;;;;;;;;5084585;28;20032;-77
2021/05/20 02:42:11;;;;;;;466.52;286.02;;;;;;;;;;5070297;28;20047;-75
2021/05/20 02:44:37;;;;;;;468.20;285.10;;;;;;;;;;5064622;28;20032;-76
2021/05/20 02:47:03;;;;;;;462.65;279.35;;;;;;;;;;5078717;28;20479;-76
2021/05/20 02:49:29;;;;;;;468.45;285.90;;;;;;;;;;5071659;28;20614;-75
2021/05/20 02:51:54;;;;;;;471.00;288.85;;;;;;;;;;5064222;28;20381;-78
2021/05/20 02:54:21;;;;;;;472.17;288.70;;;;;;;;;;5070013;28;20099;-77
2021/05/20 02:56:47;;;;;;;476.95;294.45;;;;;;;;;;5078798;28;20585;-75
2021/05/20 02:59:13;;;;;;;469.52;286.20;;;;;;;;;;5087565;28;20107;-77
2021/05/20 03:01:43;;;;;;;469.67;283.27;;;;;;;;;;5054437;28;20047;-75
2021/05/20 03:04:10;;;;;;;470.85;290.85;;;;;;;;;;5062037;28;20027;-77
2021/05/20 03:06:36;;;;;;;483.98;294.13;;;;;;;;;;5084046;28;20717;-76
2021/05/20 03:09:02;;;;;;;482.38;288.45;;;;;;;;;;5069368;28;20029;-75
2021/05/20 03:11:28;;;;;;;475.05;296.50;;;;;;;;;;5082407;28;20104;-78
2021/05/20 03:13:55;;;;;;;470.80;289.27;;;;;;;;;;5086565;28;20030;-76
2021/05/20 03:16:21;;;;;;;475.08;293.75;;;;;;;;;;5070688;28;20041;-77
2021/05/20 03:18:47;;;;;;;467.92;286.80;;;;;;;;;;5071376;28;20047;-76
2021/05/20 03:21:13;;;;;;;475.38;298.83;;;;;;;;;;5074955;28;20097;-76
2021/05/20 03:23:39;;;;;;;471.90;297.23;;;;;;;;;;5089846;28;20614;-78
2021/05/20 03:26:05;;;;;;;468.90;296.98;;;;;;;;;;5089406;28;20031;-77
2021/05/20 03:28:33;;;;;;;472.13;295.90;;;;;;;;;;5078994;28;20481;-75
2021/05/20 03:30:59;;;;;;;469.08;295.27;;;;;;;;;;5078294;28;20517;-77
2021/05/20 03:33:25;;;;;;;467.58;293.60;;;;;;;;;;5074905;28;20469;-77
2021/05/20 03:35:51;;;;;;;471.17;295.23;;;;;;;;;;5089953;28;20051;-77
2021/05/20 03:38:17;;;;;;;471.05;298.90;;;;;;;;;;5078935;28;20024;-75
2021/05/20 03:40:43;;;;;;;475.90;291.70;;;;;;;;;;5079108;28;20063;-79
2021/05/20 03:43:08;;;;;;;477.17;300.17;;;;;;;;;;5070160;28;20044;-76
2021/05/20 03:45:34;;;;;;;471.35;291.73;;;;;;;;;;5080435;28;20035;-77
2021/05/20 03:48:00;;;;;;;476.60;298.30;;;;;;;;;;5079681;28;20066;-77
2021/05/20 03:50:26;;;;;;;478.80;301.70;;;;;;;;;;5073220;28;20550;-77
2021/05/20 03:52:52;;;;;;;487.00;305.20;;;;;;;;;;5084301;28;20085;-77
2021/05/20 03:55:18;;;;;;;486.30;303.00;;;;;;;;;;5091497;28;20637;-77
2021/05/20 03:57:44;;;;;;;480.35;298.85;;;;;;;;;;5083249;28;20028;-76
2021/05/20 04:00:11;;;;;;;486.50;301.38;;;;;;;;;;5090849;28;20035;-77
2021/05/20 04:02:36;;;;;;;483.42;302.98;;;;;;;;;;5080239;28;20106;-78
2021/05/20 04:05:03;;;;;;;484.92;302.83;;;;;;;;;;5056678;28;20120;-77
2021/05/20 04:07:29;;;;;;;485.88;303.92;;;;;;;;;;5069040;28;20485;-77
2021/05/20 04:09:54;;;;;;;486.92;307.17;;;;;;;;;;5071886;28;20035;-77
2021/05/20 04:12:20;;;;;;;492.48;311.92;;;;;;;;;;5073208;28;20441;-77
2021/05/20 04:14:46;;;;;;;492.70;313.48;;;;;;;;;;5073741;28;20418;-78
2021/05/20 04:17:12;;;;;;;497.17;312.95;;;;;;;;;;5079982;28;20626;-75
2021/05/20 04:19:38;;;;;;;501.83;310.50;;;;;;;;;;5077997;28;20081;-76
2021/05/20 04:22:04;;;;;;;484.33;302.85;;;;;;;;;;5074242;28;20023;-76
2021/05/20 04:24:30;;;;;;;498.80;310.95;;;;;;;;;;5073243;28;20028;-76
2021/05/20 04:26:56;;;;;;;508.10;308.85;;;;;;;;;;5056012;28;20021;-76
2021/05/20 04:29:22;;;;;;;493.30;314.85;;;;;;;;;;5084866;28;20079;-76
2021/05/20 04:31:48;;;;;;;494.45;311.50;;;;;;;;;;5072303;28;20041;-75
2021/05/20 04:34:14;;;;;;;490.40;307.98;;;;;;;;;;5060408;28;20426;-76
2021/05/20 04:36:40;;;;;;;497.88;316.42;;;;;;;;;;5054358;28;20429;-76
2021/05/20 04:39:06;;;;;;;495.38;310.25;;;;;;;;;;5055368;28;20435;-77
2021/05/20 04:41:32;;;;;;;502.95;319.50;;;;;;;;;;5069443;28;20028;-77
2021/05/20 04:43:58;;;;;;;497.73;315.17;;;;;;;;;;5076963;28;20036;-77
2021/05/20 04:46:24;;;;;;;484.73;311.83;;;;;;;;;;5073504;28;20149;-75
2021/05/20 04:48:50;;;;;;;480.35;310.98;;;;;;;;;;5062111;28;20067;-75
2021/05/20 04:51:18;;;;;;;479.75;309.80;;;;;;;;;;5072881;28;20027;-75
2021/05/20 04:53:44;;;;;;;479.02;303.83;;;;;;;;;;5064314;28;20118;-76
2021/05/20 04:56:11;;;;;;;481.63;311.48;;;;;;;;;;5059586;28;20012;-78
2021/05/20 04:58:37;;;;;;;482.58;310.58;;;;;;;;;;5075364;28;20012;-77
2021/05/20 05:01:04;;;;;;;478.10;304.08;;;;;;;;;;5077456;28;20067;-76
2021/05/20 05:03:30;;;;;;;487.02;315.73;;;;;;;;;;5076569;28;20048;-77
2021/05/20 05:05:56;;;;;;;471.13;300.40;;;;;;;;;;5078337;28;20510;-76
2021/05/20 05:08:22;;;;;;;473.90;302.73;;;;;;;;;;5076117;28;20073;-77
2021/05/20 05:10:48;;;;;;;474.45;308.63;;;;;;;;;;5075104;28;20147;-77
2021/05/20 05:13:18;;;;;;;467.52;301.77;;;;;;;;;;5058213;28;20543;-77
2021/05/20 05:15:44;;;;;;;478.90;306.77;;;;;;;;;;5076076;28;20048;-78
2021/05/20 05:18:09;;;;;;;468.50;303.42;;;;;;;;;;5076289;28;20028;-74
2021/05/20 05:20:35;;;;;;;480.15;306.65;;;;;;;;;;5084835;28;20717;-76
2021/05/20 05:23:03;;;;;;;475.10;308.30;;;;;;;;;;5071613;28;20250;-76
2021/05/20 05:25:29;;;;;;;467.15;300.65;;;;;;;;;;5073329;28;20024;-74
2021/05/20 05:27:55;;;;;;;471.13;307.63;;;;;;;;;;5088084;28;20020;-75
2021/05/20 05:30:21;;;;;;;470.15;303.20;;;;;;;;;;5058298;28;20055;-74
2021/05/20 05:32:47;;;;;;;474.48;314.92;;;;;;;;;;5073357;28;20028;-76
2021/05/20 05:35:13;;;;;;;470.27;303.45;;;;;;;;;;5078914;28;20039;-76
2021/05/20 05:37:39;;;;;;;482.23;317.77;;;;;;;;;;5074317;28;20031;-76
2021/05/20 05:40:06;;;;;;;481.60;316.40;;;;;;;;;;5058732;28;20036;-75
2021/05/20 05:42:32;;;;;;;471.42;306.20;;;;;;;;;;5078570;28;20617;-75
2021/05/20 05:44:58;;;;;;;474.77;313.80;;;;;;;;;;5060766;28;20013;-75
2021/05/20 05:47:24;;;;;;;483.85;314.13;;;;;;;;;;5061874;28;20022;-76
2021/05/20 05:49:51;;;;;;;480.83;313.48;;;;;;;;;;5076606;28;20106;-77
2021/05/20 05:52:20;;;;;;;479.20;312.13;;;;;;;;;;5079045;28;20103;-75
2021/05/20 05:54:47;;;;;;;480.17;308.38;;;;;;;;;;5059523;28;20275;-75
2021/05/20 05:57:13;;;;;;;479.25;314.17;;;;;;;;;;5077584;28;20034;-75
2021/05/20 05:59:38;;;;;;;485.30;315.40;;;;;;;;;;5077018;28;20040;-76
2021/05/20 06:02:05;;;;;;;493.92;321.75;;;;;;;;;;5079643;28;20035;-77
2021/05/20 06:04:32;;;;;;;493.80;316.77;;;;;;;;;;5066646;28;20016;-77
2021/05/20 06:06:58;;;;;;;494.90;322.70;;;;;;;;;;5076926;28;20027;-75
2021/05/20 06:09:24;;;;;;;490.55;322.38;;;;;;;;;;5061091;28;20105;-76
2021/05/20 06:11:50;;;;;;;496.83;324.40;;;;;;;;;;5081562;28;20028;-75
2021/05/20 06:14:16;;;;;;;497.05;324.92;;;;;;;;;;5071449;28;20035;-75
2021/05/20 06:16:42;;;;;;;505.70;328.30;;;;;;;;;;5061973;28;20031;-75
2021/05/20 06:19:12;;;;;;;496.13;327.30;;;;;;;;;;5076135;28;20109;-76
2021/05/20 06:22:04;;;;;;;490.33;326.13;;;;;;;;;;5065437;28;20043;-85
2021/05/20 06:24:31;;;;;;;485.52;313.52;;;;;;;;;;5081560;28;20047;-75
2021/05/20 06:26:57;;;;;;;488.15;324.60;;;;;;;;;;5059091;28;20032;-78
2021/05/20 06:29:24;;;;;;;483.95;317.08;;;;;;;;;;5079809;28;20020;-76
2021/05/20 06:31:50;;;;;;;490.38;327.27;;;;;;;;;;5066748;28;20492;-75
2021/05/20 06:34:16;;;;;;;489.08;324.38;;;;;;;;;;5077279;28;20709;-76
2021/05/20 06:36:45;;;;;;;489.85;323.70;;;;;;;;;;5072773;28;20095;-77
2021/05/20 06:39:11;;;;;;;482.83;320.90;;;;;;;;;;5077378;28;20036;-77
2021/05/20 06:41:37;;;;;;;487.02;324.58;;;;;;;;;;5061749;28;20024;-74
2021/05/20 06:44:04;;;;;;;492.27;328.20;;;;;;;;;;5072986;28;20017;-77
2021/05/20 06:46:31;;;;;;;489.35;332.23;;;;;;;;;;5080125;28;20378;-76
2021/05/20 06:48:57;;;;;;;488.98;325.63;;;;;;;;;;5065519;28;20080;-76
2021/05/20 06:51:24;;;;;;;494.45;335.25;;;;;;;;;;5072543;28;20024;-80
2021/05/20 06:53:50;;;;;;;486.98;330.20;;;;;;;;;;5056103;28;20021;-75
2021/05/20 06:56:20;;;;;;;491.27;328.75;;;;;;;;;;5060249;28;20442;-75
2021/05/20 07:01:31;;;;;;;494.23;333.38;;;;;;;;;;5078943;28;20460;-76
2021/05/20 07:03:58;;;;;;;490.83;330.10;;;;;;;;;;5062002;28;20107;-76
2021/05/20 07:06:25;;;;;;;496.50;335.50;;;;;;;;;;5074350;28;20033;-77
2021/05/20 07:08:51;;;;;;;488.23;326.38;;;;;;;;;;5069561;28;20022;-77
2021/05/20 07:11:17;;;;;;;499.98;341.02;;;;;;;;;;5086323;28;20107;-76
2021/05/20 07:13:43;;;;;;;491.52;332.90;;;;;;;;;;5062684;28;20028;-76
2021/05/20 07:16:09;;;;;;;492.58;336.10;;;;;;;;;;5076116;28;20024;-75
2021/05/20 07:18:38;;;;;;;490.65;328.77;;;;;;;;;;5056362;28;20446;-83
2021/05/20 07:21:04;;;;;;;491.00;332.40;;;;;;;;;;5066175;28;20029;-77
2021/05/20 07:23:30;;;;;;;491.50;330.52;;;;;;;;;;5076940;28;20161;-75
2021/05/20 07:25:56;;;;;;;491.02;332.10;;;;;;;;;;5079245;28;20074;-75
2021/05/20 07:28:22;;;;;;;496.27;339.35;;;;;;;;;;5061237;28;20443;-75
2021/05/20 07:30:49;;;;;;;496.15;338.48;;;;;;;;;;5071126;28;20041;-76
2021/05/20 07:33:15;;;;;;;495.63;337.88;;;;;;;;;;5071419;28;20020;-75
2021/05/20 07:35:41;;;;;;;499.42;345.15;;;;;;;;;;5054271;28;20016;-75
2021/05/20 07:38:07;;;;;;;506.13;350.85;;;;;;;;;;5058641;28;20367;-75
2021/05/20 07:40:34;;;;;;;506.60;343.83;;;;;;;;;;5052989;28;20049;-75
2021/05/20 07:43:00;;;;;;;506.17;350.00;;;;;;;;;;5054227;28;20431;-77
2021/05/20 07:45:27;;;;;;;511.15;350.02;;;;;;;;;;5039061;28;20095;-78
2021/05/20 07:47:53;;;;;;;507.83;347.75;;;;;;;;;;5057528;28;20028;-76
2021/05/20 07:50:21;;;;;;;505.52;346.17;;;;;;;;;;5056695;28;20529;-76
2021/05/20 07:52:48;;;;;;;509.15;353.63;;;;;;;;;;5055825;28;20108;-77
2021/05/20 07:55:15;;;;;;;514.85;354.85;;;;;;;;;;5051948;28;20052;-75
2021/05/20 07:57:41;;;;;;;508.45;352.35;;;;;;;;;;5056927;28;20158;-76
2021/05/20 08:00:09;;;;;;;511.98;357.75;;;;;;;;;;5055986;28;20041;-77
2021/05/20 08:02:48;;;;;;;509.67;353.77;;;;;;;;;;5056877;28;20366;-75
2021/05/20 08:05:31;;;;;;;511.43;356.87;;;;;;;;;;5055502;28;20117;-75
2021/05/20 08:08:18;;;;;;;514.97;364.38;;;;;;;;;;5055906;28;20450;-76
2021/05/20 08:10:54;;;;;;;509.10;354.95;;;;;;;;;;5041637;28;20029;-75
2021/05/20 08:13:20;;;;;;;511.90;356.15;;;;;;;;;;5067638;28;20020;-76
2021/05/20 08:15:46;;;;;;;515.90;368.80;;;;;;;;;;5060771;28;20052;-76
2021/05/20 08:18:14;;;;;;;511.48;360.73;;;;;;;;;;5059366;28;20363;-75
2021/05/20 08:20:40;;;;;;;512.50;364.90;;;;;;;;;;5056253;28;20051;-77
2021/05/20 08:23:06;;;;;;;510.35;364.00;;;;;;;;;;5056164;28;20013;-75
2021/05/20 08:25:32;;;;;;;509.02;366.52;;;;;;;;;;5060365;28;20013;-75
2021/05/20 08:27:58;;;;;;;510.17;375.23;;;;;;;;;;5039418;28;20017;-76
2021/05/20 08:30:24;;;;;;;510.60;374.13;;;;;;;;;;5061197;28;20044;-75
2021/05/20 08:32:50;;;;;;;514.47;382.95;;;;;;;;;;5064556;28;20415;-76
2021/05/20 08:35:16;;;;;;;526.28;390.23;;;;;;;;;;5057680;28;20028;-76
2021/05/20 08:37:42;;;;;;;513.75;385.85;;;;;;;;;;5062663;28;20328;-75
2021/05/20 08:40:09;;;;;;;514.05;389.40;;;;;;;;;;5080738;28;20033;-77
2021/05/20 08:42:35;;;;;;;516.92;397.23;;;;;;;;;;5084129;28;20028;-76
2021/05/20 08:45:22;;;;;;;524.42;412.10;;;;;;;;;;5077980;28;20382;-76
2021/05/20 08:47:50;;;;;;;522.72;408.55;;;;;;;;;;5076597;28;20287;-76
2021/05/20 08:50:17;;;;;;;521.10;413.02;;;;;;;;;;5079055;28;20161;-75
2021/05/20 08:52:44;;;;;;;518.20;410.73;;;;;;;;;;5076960;28;20024;-75
2021/05/20 08:55:11;;;;;;;515.97;403.08;;;;;;;;;;5058823;28;20039;-76
2021/05/20 08:57:37;;;;;;;519.03;410.50;;;;;;;;;;5065021;28;20115;-77
2021/05/20 09:00:06;;;;;;;522.65;421.98;;;;;;;;;;5081586;28;20323;-77
2021/05/20 09:02:32;;;;;;;522.67;418.05;;;;;;;;;;5068365;28;20328;-77
2021/05/20 09:05:03;;;;;;;523.85;420.80;;;;;;;;;;5064091;28;20035;-75
2021/05/20 09:07:31;;;;;;;524.05;420.58;;;;;;;;;;5075421;28;20044;-77
2021/05/20 09:10:12;;;;;;;521.10;413.13;;;;;;;;;;5068721;28;20522;-76
2021/05/20 09:12:38;;;;;;;525.95;425.27;;;;;;;;;;5076742;28;20446;-74
2021/05/20 09:15:12;;;;;;;525.72;431.48;;;;;;;;;;5057481;28;20025;-76
2021/05/20 09:17:39;;;;;;;533.72;446.33;;;;;;;;;;5060504;28;20024;-77
2021/05/20 09:20:05;;;;;;;529.97;445.38;;;;;;;;;;5071588;28;20040;-76
2021/05/20 09:22:31;;;;;;;531.45;458.02;;;;;;;;;;5075800;28;20012;-76
2021/05/20 09:24:58;;;;;;;530.67;460.73;;;;;;;;;;5056285;28;20489;-76
2021/05/20 09:27:28;;;;;;;528.55;461.70;;;;;;;;;;5064921;28;20041;-75
2021/05/20 09:30:06;;;;;;;530.67;461.98;;;;;;;;;;5060005;28;20397;-74
2021/05/20 09:32:36;;;;;;;536.75;470.85;;;;;;;;;;5077421;28;20017;-75
2021/05/20 09:35:04;;;;;;;535.80;464.73;;;;;;;;;;5056952;28;20115;-76
2021/05/20 09:37:33;;;;;;;545.50;485.40;;;;;;;;;;5087025;28;20012;-77
2021/05/20 09:40:04;;;;;;;542.45;482.65;;;;;;;;;;5086559;28;20060;-77
2021/05/20 09:42:30;;;;;;;543.65;483.95;;;;;;;;;;5081275;28;20013;-77
2021/05/20 09:44:56;;;;;;;545.40;485.48;;;;;;;;;;5071161;28;20511;-76
2021/05/20 09:47:26;;;;;;;542.63;482.77;;;;;;;;;;5058950;28;20020;-75
2021/05/20 09:50:26;;;;;;;548.28;488.13;;;;;;;;;;5070113;28;20020;-75
2021/05/20 09:52:52;;;;;;;;;;;;;;;;;;5045966;28;20028;-77
2021/05/20 09:55:27;;;;;;;552.70;493.60;;;;;;;;;;5061363;28;19904;-77
2021/05/20 09:57:54;;;;;;;565.55;506.25;;;;;;;;;;5073533;28;20025;-76
2021/05/20 10:00:24;;;;;;;581.83;522.30;;;;;;;;;;5063194;28;20517;-82
2021/05/20 10:03:00;;;;;;;579.63;519.88;;;;;;;;;;5077011;28;20692;-74
2021/05/20 10:05:40;;;;;;;563.80;504.17;;;;;;;;;;4987511;28;20130;-74
2021/05/20 10:08:10;;;;;;;577.63;517.10;;;;;;;;;;4991622;28;20034;-75
2021/05/20 10:10:40;;;;;;;581.50;520.47;;;;;;;;;;4983578;28;20529;-77
2021/05/20 10:13:18;;;;;;;574.75;514.45;;;;;;;;;;4983020;28;20037;-76
2021/05/20 10:15:44;;;;;;;566.55;506.75;;;;;;;;;;4989934;28;20029;-76
2021/05/20 10:18:11;;;;;;;578.75;518.78;;;;;;;;;;4989855;28;20076;-76
2021/05/20 10:20:38;;;;;;;580.30;519.60;;;;;;;;;;4999837;28;20029;-76
2021/05/20 10:23:12;;;;;;;571.30;510.92;;;;;;;;;;4991031;28;20588;-77
2021/05/20 10:25:40;;;;;;;566.25;505.60;;;;;;;;;;5000335;28;20036;-76
2021/05/20 10:28:07;;;;;;;565.45;504.80;;;;;;;;;;4999551;28;20049;-79
2021/05/20 10:30:33;;;;;;;569.97;509.65;;;;;;;;;;4988224;28;20118;-78
2021/05/20 10:33:00;;;;;;;580.30;519.75;;;;;;;;;;4985970;28;20057;-77
2021/05/20 10:35:45;;;;;;;577.53;517.50;;;;;;;;;;4982941;28;20088;-78
2021/05/20 10:38:17;;;;;;;576.90;516.65;;;;;;;;;;5002386;28;20101;-76
2021/05/20 10:40:43;;;;;;;581.28;521.85;;;;;;;;;;4997519;28;20030;-78
2021/05/20 10:43:18;;;;;;;592.75;533.28;;;;;;;;;;4999458;28;20022;-78
2021/05/20 10:46:01;;;;;;;612.88;553.13;;;;;;;;;;5002087;28;20026;-76
2021/05/20 10:48:28;;;;;;;619.05;559.53;;;;;;;;;;4987584;28;20045;-77
2021/05/20 10:51:04;;;;;;;624.78;564.88;;;;;;;;;;4992885;28;20052;-77
2021/05/20 10:53:50;;;;;;;621.90;562.33;;;;;;;;;;4983218;28;20022;-77
2021/05/20 10:56:16;;;;;;;597.72;539.72;;;;;;;;;;4999198;28;22081;-76
2021/05/20 10:58:47;;;;;;;624.85;564.53;;;;;;;;;;4983006;28;20038;-75
2021/05/20 11:01:26;;;;;;;596.85;538.42;;;;;;;;;;4981532;28;20023;-77
2021/05/20 11:03:53;;;;;;;566.40;508.77;;;;;;;;;;4994262;28;20067;-77
2021/05/20 11:06:20;;;;;;;555.05;498.02;;;;;;;;;;4998895;28;20356;-76
2021/05/20 11:08:46;;;;;;;576.28;519.05;;;;;;;;;;4987356;28;20121;-76
2021/05/20 11:11:24;;;;;;;591.72;534.15;;;;;;;;;;4989023;28;20117;-77
2021/05/20 11:13:50;;;;;;;596.13;538.15;;;;;;;;;;4993024;28;20030;-77
2021/05/20 11:16:16;;;;;;;612.10;554.17;;;;;;;;;;4988261;28;20023;-76
2021/05/20 11:18:43;;;;;;;609.58;551.38;;;;;;;;;;4968662;28;20027;-79
2021/05/20 11:21:09;;;;;;;619.38;560.78;;;;;;;;;;4983578;28;20052;-77
2021/05/20 11:23:36;;;;;;;615.38;557.25;;;;;;;;;;4980863;28;20524;-77
2021/05/20 11:26:06;;;;;;;625.03;566.42;;;;;;;;;;4984148;28;20036;-77
2021/05/20 11:29:01;;;;;;;624.10;565.55;;;;;;;;;;4977514;28;20102;-77
2021/05/20 11:31:28;;;;;;;620.55;562.05;;;;;;;;;;4976568;28;20066;-77
2021/05/20 11:33:59;;;;;;;620.47;561.75;;;;;;;;;;4974502;28;20119;-78
2021/05/20 11:36:36;;;;;;;623.35;564.15;;;;;;;;;;4975370;28;20023;-78
2021/05/20 11:39:04;;;;;;;605.58;547.05;;;;;;;;;;4987599;28;20010;-78
2021/05/20 11:41:34;;;;;;;607.38;548.50;;;;;;;;;;4999320;28;20035;-78
2021/05/20 11:44:01;;;;;;;613.25;554.42;;;;;;;;;;4986348;28;20829;-77
2021/05/20 11:46:27;;;;;;;612.40;553.78;;;;;;;;;;4987096;28;20344;-78
2021/05/20 11:49:00;;;;;;;610.28;551.85;;;;;;;;;;4988029;28;20026;-77
2021/05/20 11:51:46;;;;;;;610.65;552.05;;;;;;;;;;4980819;28;20460;-76
2021/05/20 11:54:15;;;;;;;606.03;547.60;;;;;;;;;;4969276;28;20076;-77
2021/05/20 11:56:43;;;;;;;611.83;552.83;;;;;;;;;;4973777;28;20130;-77
2021/05/20 11:59:09;;;;;;;612.15;552.95;;;;;;;;;;4984750;28;20031;-75
2021/05/20 12:01:36;;;;;;;602.15;542.95;;;;;;;;;;4970549;28;20065;-77
2021/05/20 12:04:06;;;;;;;599.67;540.42;;;;;;;;;;4970371;28;20042;-76
2021/05/20 12:06:32;;;;;;;603.47;543.60;;;;;;;;;;4972549;28;20049;-77
2021/05/20 12:09:24;;;;;;;612.13;551.00;;;;;;;;;;4981922;28;20027;-76
2021/05/20 12:11:52;;;;;;;584.20;524.38;;;;;;;;;;4989725;28;20051;-76
2021/05/20 12:14:30;;;;;;;588.95;529.15;;;;;;;;;;4974587;28;20029;-77
2021/05/20 12:17:08;;;;;;;582.67;522.97;;;;;;;;;;4976055;28;20015;-77
2021/05/20 12:19:35;;;;;;;578.65;518.90;;;;;;;;;;4978603;28;20122;-76
2021/05/20 12:22:12;;;;;;;577.90;518.10;;;;;;;;;;4977935;28;20040;-76
2021/05/20 12:24:39;;;;;;;571.50;512.10;;;;;;;;;;4977904;28;20042;-76
2021/05/20 12:27:23;;;;;;;560.70;501.13;;;;;;;;;;4972718;28;20511;-77
2021/05/20 12:29:59;;;;;;;553.13;493.63;;;;;;;;;;4975167;28;20031;-76
2021/05/20 12:32:30;;;;;;;550.95;491.50;;;;;;;;;;4982709;28;20019;-76
2021/05/20 12:35:07;;;;;;;553.10;493.63;;;;;;;;;;4972681;28;20022;-77
2021/05/20 12:37:52;;;;;;;538.28;478.83;;;;;;;;;;4975103;28;20027;-79
2021/05/20 12:40:25;;;;;;;537.10;478.00;;;;;;;;;;4971849;28;20117;-76
2021/05/20 12:42:52;;;;;;;538.65;479.20;;;;;;;;;;4977899;28;20142;-75
2021/05/20 12:45:26;;;;;;;529.38;463.23;;;;;;;;;;4978353;28;20642;-76
2021/05/20 12:47:53;;;;;;;521.78;446.73;;;;;;;;;;4988371;28;20420;-77
2021/05/20 12:50:39;;;;;;;528.80;452.88;;;;;;;;;;4988024;28;20015;-76
2021/05/20 12:53:05;;;;;;;544.05;464.25;;;;;;;;;;4984199;28;20066;-77
2021/05/20 12:55:35;;;;;;;542.80;456.38;;;;;;;;;;4979394;28;20046;-77
2021/05/20 12:58:01;;;;;;;;;;;;;;;;;;4980214;28;20143;-76
2021/05/20 13:00:28;;;;;;;540.20;435.02;;;;;;;;;;4968497;28;20320;-76
2021/05/20 13:02:58;;;;;;;554.60;455.08;;;;;;;;;;4975007;28;20063;-77
2021/05/20 13:05:24;;;;;;;551.47;451.52;;;;;;;;;;4973385;28;20108;-76
2021/05/20 13:07:51;;;;;;;540.08;441.85;;;;;;;;;;4971373;28;20109;-76
2021/05/20 13:10:35;;;;;;;545.42;446.90;;;;;;;;;;4969036;28;20389;-77
2021/05/20 13:13:01;;;;;;;547.45;440.73;;;;;;;;;;4975630;28;20096;-75
2021/05/20 13:15:44;;;;;;;544.42;440.33;;;;;;;;;;4968347;28;20031;-76
2021/05/20 13:18:40;;;;;;;540.60;433.55;;;;;;;;;;4976831;28;20029;-75
2021/05/20 13:23:40;;;;;;;533.83;430.85;;;;;;;;;;5003045;28;20032;-76
2021/05/20 13:26:06;;;;;;;545.42;443.00;;;;;;;;;;4978169;28;20033;-76
2021/05/20 13:28:32;;;;;;;567.05;463.63;;;;;;;;;;4980236;28;20027;-76
2021/05/20 13:31:02;;;;;;;556.30;455.10;;;;;;;;;;4981958;28;20110;-76
2021/05/20 13:33:37;;;;;;;565.05;453.88;;;;;;;;;;4968813;28;20026;-75
2021/05/20 13:36:05;;;;;;;590.67;484.40;;;;;;;;;;4982078;28;20029;-76
2021/05/20 13:38:32;;;;;;;517.95;410.65;;;;;;;;;;4970697;28;20073;-78
2021/05/20 13:40:58;;;;;;;521.00;407.80;;;;;;;;;;4968185;28;20220;-75
2021/05/20 13:43:25;;;;;;;522.45;411.75;;;;;;;;;;4974613;28;20069;-75
2021/05/20 13:45:51;;;;;;;517.15;399.95;;;;;;;;;;4971938;28;20026;-76
2021/05/20 13:48:17;;;;;;;517.38;401.75;;;;;;;;;;4973560;28;20019;-76
2021/05/20 13:50:46;;;;;;;517.55;404.20;;;;;;;;;;4975657;28;20072;-75
2021/05/20 13:53:13;;;;;;;524.80;411.65;;;;;;;;;;4983237;28;20433;-75
2021/05/20 13:55:40;;;;;;;536.50;417.42;;;;;;;;;;4969363;28;20130;-76
2021/05/20 13:58:09;;;;;;;537.22;419.95;;;;;;;;;;4969261;28;20436;-73
2021/05/20 14:00:36;;;;;;;537.20;423.40;;;;;;;;;;4975197;28;20026;-75
2021/05/20 14:03:03;;;;;;;538.72;429.13;;;;;;;;;;4975251;28;20472;-77
2021/05/20 14:05:30;;;;;;;546.78;435.52;;;;;;;;;;4986690;28;20046;-77
2021/05/20 14:07:56;;;;;;;544.83;437.92;;;;;;;;;;4987808;28;20088;-76